sensor_id;sensor_type;location;lat;lon;timestamp;pressure;altitude;pressure_sealevel;temperature;humidity
83782;BME280;73783;49.924;15.466;2023-11-18T00:02:16;99530.03;;;4.67;80.45
83782;BME280;73783;49.924;15.466;2023-11-18T00:04:43;99532.72;;;4.56;80.83
83782;BME280;73783;49.924;15.466;2023-11-18T00:07:08;99543.59;;;4.72;80.99
83782;BME280;73783;49.924;15.466;2023-11-18T00:09:34;99542.69;;;4.74;80.29
83782;BME280;73783;49.924;15.466;2023-11-18T00:12:00;99547.84;;;4.73;81.18
83782;BME280;73783;49.924;15.466;2023-11-18T00:14:26;99536.06;;;4.60;80.80
83782;BME280;73783;49.924;15.466;2023-11-18T00:16:52;99547.97;;;4.62;81.59
83782;BME280;73783;49.924;15.466;2023-11-18T00:19:18;99547.19;;;4.57;81.18
83782;BME280;73783;49.924;15.466;2023-11-18T00:21:43;99552.19;;;4.65;80.60
83782;BME280;73783;49.924;15.466;2023-11-18T00:24:09;99550.53;;;4.62;80.66
83782;BME280;73783;49.924;15.466;2023-11-18T00:26:35;99548.03;;;4.58;80.92
83782;BME280;73783;49.924;15.466;2023-11-18T00:29:00;99556.50;;;4.63;81.19
83782;BME280;73783;49.924;15.466;2023-11-18T00:31:26;99549.69;;;4.62;80.95
83782;BME280;73783;49.924;15.466;2023-11-18T00:33:52;99554.75;;;4.65;81.07
83782;BME280;73783;49.924;15.466;2023-11-18T00:36:18;99560.78;;;4.59;80.76
83782;BME280;73783;49.924;15.466;2023-11-18T00:38:44;99560.81;;;4.56;81.36
83782;BME280;73783;49.924;15.466;2023-11-18T00:41:09;99563.38;;;4.55;80.21
83782;BME280;73783;49.924;15.466;2023-11-18T00:43:35;99554.91;;;4.50;81.04
83782;BME280;73783;49.924;15.466;2023-11-18T00:46:01;99571.00;;;4.59;80.72
83782;BME280;73783;49.924;15.466;2023-11-18T00:48:28;99564.22;;;4.57;80.03
83782;BME280;73783;49.924;15.466;2023-11-18T00:50:54;99578.75;;;4.52;80.09
83782;BME280;73783;49.924;15.466;2023-11-18T00:53:21;99564.28;;;4.52;80.13
83782;BME280;73783;49.924;15.466;2023-11-18T00:55:47;99581.19;;;4.64;80.47
83782;BME280;73783;49.924;15.466;2023-11-18T00:58:13;99579.50;;;4.60;79.95
83782;BME280;73783;49.924;15.466;2023-11-18T01:00:39;99593.19;;;4.56;79.69
83782;BME280;73783;49.924;15.466;2023-11-18T01:03:04;99589.78;;;4.57;79.25
83782;BME280;73783;49.924;15.466;2023-11-18T01:05:30;99594.03;;;4.58;80.10
83782;BME280;73783;49.924;15.466;2023-11-18T01:07:59;99592.38;;;4.51;80.15
83782;BME280;73783;49.924;15.466;2023-11-18T01:10:25;99594.03;;;4.58;78.94
83782;BME280;73783;49.924;15.466;2023-11-18T01:12:50;99594.84;;;4.60;79.45
83782;BME280;73783;49.924;15.466;2023-11-18T01:15:17;99597.44;;;4.57;79.58
83782;BME280;73783;49.924;15.466;2023-11-18T01:17:42;99591.47;;;4.55;79.85
83782;BME280;73783;49.924;15.466;2023-11-18T01:20:08;99600.09;;;4.48;79.37
83782;BME280;73783;49.924;15.466;2023-11-18T01:22:38;99600.03;;;4.54;79.48
83782;BME280;73783;49.924;15.466;2023-11-18T01:25:05;99606.81;;;4.56;80.25
83782;BME280;73783;49.924;15.466;2023-11-18T01:27:31;99599.94;;;4.60;79.97
83782;BME280;73783;49.924;15.466;2023-11-18T01:29:59;99600.03;;;4.52;79.13
83782;BME280;73783;49.924;15.466;2023-11-18T01:32:25;99598.28;;;4.56;79.14
83782;BME280;73783;49.924;15.466;2023-11-18T01:34:51;99608.41;;;4.68;79.25
83782;BME280;73783;49.924;15.466;2023-11-18T01:37:18;99600.69;;;4.69;79.01
83782;BME280;73783;49.924;15.466;2023-11-18T01:39:47;99598.19;;;4.65;79.39
83782;BME280;73783;49.924;15.466;2023-11-18T01:42:12;99607.56;;;4.66;78.72
83782;BME280;73783;49.924;15.466;2023-11-18T01:44:38;99607.59;;;4.63;78.94
83782;BME280;73783;49.924;15.466;2023-11-18T01:47:04;99603.34;;;4.62;79.81
83782;BME280;73783;49.924;15.466;2023-11-18T01:49:35;99609.31;;;4.61;80.28
83782;BME280;73783;49.924;15.466;2023-11-18T01:52:06;99613.44;;;4.72;80.68
83782;BME280;73783;49.924;15.466;2023-11-18T01:54:34;99610.91;;;4.71;80.25
83782;BME280;73783;49.924;15.466;2023-11-18T01:57:03;99615.16;;;4.70;79.80
83782;BME280;73783;49.924;15.466;2023-11-18T01:59:32;99615.22;;;4.67;80.05
83782;BME280;73783;49.924;15.466;2023-11-18T02:01:59;99622.88;;;4.64;80.35
83782;BME280;73783;49.924;15.466;2023-11-18T02:04:25;99611.00;;;4.62;80.04
83782;BME280;73783;49.924;15.466;2023-11-18T02:06:52;99630.50;;;4.70;79.53
83782;BME280;73783;49.924;15.466;2023-11-18T02:09:19;99617.81;;;4.63;79.80
83782;BME280;73783;49.924;15.466;2023-11-18T02:14:39;99642.53;;;4.62;78.44
83782;BME280;73783;49.924;15.466;2023-11-18T02:17:07;99637.41;;;4.64;79.34
83782;BME280;73783;49.924;15.466;2023-11-18T02:19:35;99634.81;;;4.65;78.87
83782;BME280;73783;49.924;15.466;2023-11-18T02:22:01;99626.34;;;4.60;78.68
83782;BME280;73783;49.924;15.466;2023-11-18T02:24:28;99639.91;;;4.67;78.98
83782;BME280;73783;49.924;15.466;2023-11-18T02:26:57;99626.38;;;4.59;79.49
83782;BME280;73783;49.924;15.466;2023-11-18T02:29:24;99628.00;;;4.64;79.79
83782;BME280;73783;49.924;15.466;2023-11-18T02:31:52;99639.16;;;4.57;80.87
83782;BME280;73783;49.924;15.466;2023-11-18T02:34:22;99645.06;;;4.64;81.54
83782;BME280;73783;49.924;15.466;2023-11-18T02:36:52;99626.44;;;4.53;81.56
83782;BME280;73783;49.924;15.466;2023-11-18T02:39:28;99652.81;;;4.56;82.03
83782;BME280;73783;49.924;15.466;2023-11-18T02:41:57;99653.75;;;4.48;82.75
83782;BME280;73783;49.924;15.466;2023-11-18T02:44:23;99647.75;;;4.52;82.34
83782;BME280;73783;49.924;15.466;2023-11-18T02:46:51;99648.59;;;4.51;83.21
83782;BME280;73783;49.924;15.466;2023-11-18T02:49:16;99640.16;;;4.43;83.10
83782;BME280;73783;49.924;15.466;2023-11-18T02:51:43;99665.63;;;4.50;82.85
83782;BME280;73783;49.924;15.466;2023-11-18T02:54:11;99659.72;;;4.47;82.38
83782;BME280;73783;49.924;15.466;2023-11-18T02:56:37;99673.34;;;4.47;82.45
83782;BME280;73783;49.924;15.466;2023-11-18T02:59:03;99666.53;;;4.48;82.72
83782;BME280;73783;49.924;15.466;2023-11-18T03:01:34;99676.69;;;4.51;82.64
83782;BME280;73783;49.924;15.466;2023-11-18T03:04:00;99675.81;;;4.56;81.72
83782;BME280;73783;49.924;15.466;2023-11-18T03:06:26;99670.78;;;4.49;82.17
83782;BME280;73783;49.924;15.466;2023-11-18T03:08:52;99661.41;;;4.46;81.66
83782;BME280;73783;49.924;15.466;2023-11-18T03:11:19;99667.34;;;4.50;81.95
83782;BME280;73783;49.924;15.466;2023-11-18T03:13:45;99668.94;;;4.60;80.65
83782;BME280;73783;49.924;15.466;2023-11-18T03:16:13;99673.25;;;4.56;80.94
83782;BME280;73783;49.924;15.466;2023-11-18T03:18:41;99679.91;;;4.69;80.59
83782;BME280;73783;49.924;15.466;2023-11-18T03:21:13;99676.63;;;4.60;80.64
83782;BME280;73783;49.924;15.466;2023-11-18T03:23:39;99666.47;;;4.54;80.74
83782;BME280;73783;49.924;15.466;2023-11-18T03:26:06;99671.44;;;4.64;79.64
83782;BME280;73783;49.924;15.466;2023-11-18T03:28:32;99668.09;;;4.62;79.43
83782;BME280;73783;49.924;15.466;2023-11-18T03:30:57;99665.53;;;4.61;79.63
83782;BME280;73783;49.924;15.466;2023-11-18T03:33:24;99654.59;;;4.47;80.29
83782;BME280;73783;49.924;15.466;2023-11-18T03:35:50;99675.75;;;4.64;79.12
83782;BME280;73783;49.924;15.466;2023-11-18T03:38:15;99674.03;;;4.63;79.40
83782;BME280;73783;49.924;15.466;2023-11-18T03:40:43;99679.91;;;4.71;79.67
83782;BME280;73783;49.924;15.466;2023-11-18T03:43:13;99687.56;;;4.74;78.79
83782;BME280;73783;49.924;15.466;2023-11-18T03:45:39;99692.75;;;4.68;79.69
83782;BME280;73783;49.924;15.466;2023-11-18T03:48:06;99680.84;;;4.64;80.57
83782;BME280;73783;49.924;15.466;2023-11-18T03:50:33;99675.75;;;4.64;80.31
83782;BME280;73783;49.924;15.466;2023-11-18T03:52:59;99685.94;;;4.65;80.11
83782;BME280;73783;49.924;15.466;2023-11-18T03:55:24;99677.44;;;4.63;80.55
83782;BME280;73783;49.924;15.466;2023-11-18T03:57:51;99682.53;;;4.65;80.72
83782;BME280;73783;49.924;15.466;2023-11-18T04:00:17;99673.25;;;4.59;80.95
83782;BME280;73783;49.924;15.466;2023-11-18T04:02:46;99685.06;;;4.66;80.10
83782;BME280;73783;49.924;15.466;2023-11-18T04:05:12;99674.91;;;4.60;80.84
83782;BME280;73783;49.924;15.466;2023-11-18T04:07:38;99692.69;;;4.72;80.24
83782;BME280;73783;49.924;15.466;2023-11-18T04:10:08;99687.72;;;4.59;80.79
83782;BME280;73783;49.924;15.466;2023-11-18T04:12:38;99697.00;;;4.69;81.27
83782;BME280;73783;49.924;15.466;2023-11-18T04:15:05;99704.66;;;4.69;81.49
83782;BME280;73783;49.924;15.466;2023-11-18T04:17:31;99702.13;;;4.66;81.14
83782;BME280;73783;49.924;15.466;2023-11-18T04:19:57;99697.91;;;4.62;80.65
83782;BME280;73783;49.924;15.466;2023-11-18T04:22:23;99689.56;;;4.45;81.81
83782;BME280;73783;49.924;15.466;2023-11-18T04:24:49;99692.16;;;4.39;82.15
83782;BME280;73783;49.924;15.466;2023-11-18T04:27:15;99694.72;;;4.39;81.93
83782;BME280;73783;49.924;15.466;2023-11-18T04:29:41;99702.41;;;4.34;82.07
83782;BME280;73783;49.924;15.466;2023-11-18T04:32:07;99693.06;;;4.31;82.11
83782;BME280;73783;49.924;15.466;2023-11-18T04:34:36;99706.63;;;4.38;82.80
83782;BME280;73783;49.924;15.466;2023-11-18T04:37:05;99699.88;;;4.32;82.50
83782;BME280;73783;49.924;15.466;2023-11-18T04:39:32;99697.28;;;4.37;82.33
83782;BME280;73783;49.924;15.466;2023-11-18T04:41:58;99691.28;;;4.43;81.81
83782;BME280;73783;49.924;15.466;2023-11-18T04:44:23;99704.03;;;4.41;82.02
83782;BME280;73783;49.924;15.466;2023-11-18T04:46:49;99707.41;;;4.46;81.96
83782;BME280;73783;49.924;15.466;2023-11-18T04:49:15;99694.69;;;4.42;81.89
83782;BME280;73783;49.924;15.466;2023-11-18T04:51:41;99711.66;;;4.49;81.56
83782;BME280;73783;49.924;15.466;2023-11-18T04:54:07;99703.19;;;4.42;82.12
83782;BME280;73783;49.924;15.466;2023-11-18T04:56:34;99703.19;;;4.41;81.64
83782;BME280;73783;49.924;15.466;2023-11-18T04:59:02;99704.09;;;4.35;82.41
83782;BME280;73783;49.924;15.466;2023-11-18T05:01:28;99717.72;;;4.35;82.99
83782;BME280;73783;49.924;15.466;2023-11-18T05:03:53;99707.44;;;4.42;81.91
83782;BME280;73783;49.924;15.466;2023-11-18T05:06:20;99703.16;;;4.45;81.69
83782;BME280;73783;49.924;15.466;2023-11-18T05:08:45;99711.63;;;4.52;81.13
83782;BME280;73783;49.924;15.466;2023-11-18T05:11:11;99708.16;;;4.56;81.49
83782;BME280;73783;49.924;15.466;2023-11-18T05:13:38;99703.19;;;4.44;81.62
83782;BME280;73783;49.924;15.466;2023-11-18T05:16:05;99719.31;;;4.49;81.48
83782;BME280;73783;49.924;15.466;2023-11-18T05:18:32;99722.75;;;4.48;81.50
83782;BME280;73783;49.924;15.466;2023-11-18T05:21:01;99727.03;;;4.41;82.34
83782;BME280;73783;49.924;15.466;2023-11-18T05:23:28;99723.66;;;4.38;81.75
83782;BME280;73783;49.924;15.466;2023-11-18T05:25:57;99717.78;;;4.28;82.55
83782;BME280;73783;49.924;15.466;2023-11-18T05:28:26;99733.06;;;4.34;82.05
83782;BME280;73783;49.924;15.466;2023-11-18T05:30:52;99740.75;;;4.31;82.06
83782;BME280;73783;49.924;15.466;2023-11-18T05:33:18;99738.97;;;4.41;82.23
83782;BME280;73783;49.924;15.466;2023-11-18T05:35:45;99728.78;;;4.39;82.26
83782;BME280;73783;49.924;15.466;2023-11-18T05:38:19;99736.41;;;4.42;81.58
83782;BME280;73783;49.924;15.466;2023-11-18T05:40:47;99749.94;;;4.50;81.91
83782;BME280;73783;49.924;15.466;2023-11-18T05:43:24;99738.16;;;4.35;81.83
83782;BME280;73783;49.924;15.466;2023-11-18T05:45:51;99745.81;;;4.35;81.42
83782;BME280;73783;49.924;15.466;2023-11-18T05:48:35;99750.88;;;4.42;81.26
83782;BME280;73783;49.924;15.466;2023-11-18T05:51:01;99751.72;;;4.42;81.59
83782;BME280;73783;49.924;15.466;2023-11-18T05:53:26;99742.41;;;4.36;81.39
83782;BME280;73783;49.924;15.466;2023-11-18T05:55:53;99756.84;;;4.41;81.23
83782;BME280;73783;49.924;15.466;2023-11-18T05:58:18;99748.38;;;4.35;81.41
83782;BME280;73783;49.924;15.466;2023-11-18T06:00:46;99770.47;;;4.44;81.46
83782;BME280;73783;49.924;15.466;2023-11-18T06:03:12;99752.63;;;4.35;81.68
83782;BME280;73783;49.924;15.466;2023-11-18T06:05:38;99755.25;;;4.27;81.66
83782;BME280;73783;49.924;15.466;2023-11-18T06:08:03;99766.25;;;4.35;81.75
83782;BME280;73783;49.924;15.466;2023-11-18T06:10:29;99768.78;;;4.40;80.90
83782;BME280;73783;49.924;15.466;2023-11-18T06:12:57;99767.13;;;4.31;81.08
83782;BME280;73783;49.924;15.466;2023-11-18T06:15:24;99768.84;;;4.34;81.06
83782;BME280;73783;49.924;15.466;2023-11-18T06:17:49;99784.94;;;4.41;81.03
83782;BME280;73783;49.924;15.466;2023-11-18T06:20:15;99762.91;;;4.29;80.00
83782;BME280;73783;49.924;15.466;2023-11-18T06:22:42;99786.72;;;4.32;80.95
83782;BME280;73783;49.924;15.466;2023-11-18T06:25:08;99796.91;;;4.35;81.11
83782;BME280;73783;49.924;15.466;2023-11-18T06:27:34;99783.38;;;4.24;81.14
83782;BME280;73783;49.924;15.466;2023-11-18T06:30:00;99767.25;;;4.19;80.71
83782;BME280;73783;49.924;15.466;2023-11-18T06:32:25;99788.41;;;4.32;80.89
83782;BME280;73783;49.924;15.466;2023-11-18T06:34:52;99790.13;;;4.34;81.52
83782;BME280;73783;49.924;15.466;2023-11-18T06:37:19;99797.75;;;4.39;81.54
83782;BME280;73783;49.924;15.466;2023-11-18T06:39:45;99792.69;;;4.34;80.68
83782;BME280;73783;49.924;15.466;2023-11-18T06:42:13;99793.44;;;4.46;80.50
83782;BME280;73783;49.924;15.466;2023-11-18T06:44:40;99794.34;;;4.39;81.66
83782;BME280;73783;49.924;15.466;2023-11-18T06:47:05;99791.75;;;4.43;80.69
83782;BME280;73783;49.924;15.466;2023-11-18T06:49:34;99797.72;;;4.42;80.49
83782;BME280;73783;49.924;15.466;2023-11-18T06:52:00;99802.81;;;4.44;79.89
83782;BME280;73783;49.924;15.466;2023-11-18T06:54:29;99808.75;;;4.49;79.90
83782;BME280;73783;49.924;15.466;2023-11-18T06:56:55;99814.69;;;4.52;80.21
83782;BME280;73783;49.924;15.466;2023-11-18T06:59:22;99801.94;;;4.49;80.32
83782;BME280;73783;49.924;15.466;2023-11-18T07:01:47;99808.69;;;4.55;79.66
83782;BME280;73783;49.924;15.466;2023-11-18T07:04:13;99815.53;;;4.50;80.03
83782;BME280;73783;49.924;15.466;2023-11-18T07:06:39;99826.56;;;4.55;80.06
83782;BME280;73783;49.924;15.466;2023-11-18T07:09:06;99809.56;;;4.54;79.78
83782;BME280;73783;49.924;15.466;2023-11-18T07:11:39;99813.84;;;4.52;80.11
83782;BME280;73783;49.924;15.466;2023-11-18T07:14:07;99825.69;;;4.60;80.41
83782;BME280;73783;49.924;15.466;2023-11-18T07:16:34;99824.00;;;4.59;80.38
83782;BME280;73783;49.924;15.466;2023-11-18T07:19:00;99820.63;;;4.56;79.69
83782;BME280;73783;49.924;15.466;2023-11-18T07:21:29;99824.88;;;4.58;79.57
83782;BME280;73783;49.924;15.466;2023-11-18T07:23:55;99834.19;;;4.61;79.88
83782;BME280;73783;49.924;15.466;2023-11-18T07:26:22;99828.19;;;4.65;80.45
83782;BME280;73783;49.924;15.466;2023-11-18T07:28:47;99838.38;;;4.74;79.43
83782;BME280;73783;49.924;15.466;2023-11-18T07:31:13;99828.16;;;4.74;79.94
83782;BME280;73783;49.924;15.466;2023-11-18T07:33:39;99839.19;;;4.76;79.43
83782;BME280;73783;49.924;15.466;2023-11-18T07:36:04;99842.59;;;4.78;79.21
83782;BME280;73783;49.924;15.466;2023-11-18T07:38:31;99836.66;;;4.76;79.81
83782;BME280;73783;49.924;15.466;2023-11-18T07:40:58;99828.94;;;4.79;79.11
83782;BME280;73783;49.924;15.466;2023-11-18T07:43:25;99825.56;;;4.77;78.75
83782;BME280;73783;49.924;15.466;2023-11-18T07:45:53;99832.31;;;4.89;78.33
83782;BME280;73783;49.924;15.466;2023-11-18T07:48:19;99836.53;;;4.91;79.11
83782;BME280;73783;49.924;15.466;2023-11-18T07:50:46;99823.75;;;4.90;77.96
83782;BME280;73783;49.924;15.466;2023-11-18T07:53:15;99833.94;;;4.94;78.31
83782;BME280;73783;49.924;15.466;2023-11-18T07:55:43;99844.91;;;5.04;77.59
83782;BME280;73783;49.924;15.466;2023-11-18T07:58:11;99842.41;;;4.99;77.39
83782;BME280;73783;49.924;15.466;2023-11-18T08:00:41;99853.53;;;4.98;77.45
83782;BME280;73783;49.924;15.466;2023-11-18T08:03:11;99856.00;;;5.04;77.89
83782;BME280;73783;49.924;15.466;2023-11-18T08:05:42;99851.66;;;5.17;76.70
83782;BME280;73783;49.924;15.466;2023-11-18T08:08:14;99844.13;;;5.00;76.57
83782;BME280;73783;49.924;15.466;2023-11-18T08:10:43;99846.59;;;5.09;77.00
83782;BME280;73783;49.924;15.466;2023-11-18T08:13:11;99836.28;;;5.17;76.31
83782;BME280;73783;49.924;15.466;2023-11-18T08:15:41;99852.41;;;5.23;78.51
83782;BME280;73783;49.924;15.466;2023-11-18T08:18:08;99858.38;;;5.26;77.57
83782;BME280;73783;49.924;15.466;2023-11-18T08:20:35;99857.56;;;5.19;77.28
83782;BME280;73783;49.924;15.466;2023-11-18T08:23:01;99853.34;;;5.15;77.04
83782;BME280;73783;49.924;15.466;2023-11-18T08:25:27;99863.56;;;5.18;77.32
83782;BME280;73783;49.924;15.466;2023-11-18T08:27:53;99866.16;;;5.16;76.87
83782;BME280;73783;49.924;15.466;2023-11-18T08:30:18;99848.28;;;5.09;75.84
83782;BME280;73783;49.924;15.466;2023-11-18T08:32:46;99866.00;;;5.29;74.93
83782;BME280;73783;49.924;15.466;2023-11-18T08:35:12;99854.19;;;5.17;75.76
83782;BME280;73783;49.924;15.466;2023-11-18T08:37:40;99872.88;;;5.23;76.01
83782;BME280;73783;49.924;15.466;2023-11-18T08:40:07;99872.78;;;5.33;75.29
83782;BME280;73783;49.924;15.466;2023-11-18T08:42:47;99867.75;;;5.23;75.94
83782;BME280;73783;49.924;15.466;2023-11-18T08:47:48;99877.84;;;5.42;75.65
83782;BME280;73783;49.924;15.466;2023-11-18T08:50:15;99876.97;;;5.43;75.36
83782;BME280;73783;49.924;15.466;2023-11-18T08:52:43;99885.38;;;5.52;75.50
83782;BME280;73783;49.924;15.466;2023-11-18T08:55:12;99887.88;;;5.60;74.81
83782;BME280;73783;49.924;15.466;2023-11-18T08:57:49;99873.53;;;5.45;74.18
83782;BME280;73783;49.924;15.466;2023-11-18T09:00:27;99890.44;;;5.61;74.59
83782;BME280;73783;49.924;15.466;2023-11-18T09:03:16;99896.31;;;5.70;72.64
83782;BME280;73783;49.924;15.466;2023-11-18T09:05:52;99898.03;;;5.71;72.47
83782;BME280;73783;49.924;15.466;2023-11-18T09:08:35;99902.31;;;5.67;72.88
83782;BME280;73783;49.924;15.466;2023-11-18T09:11:02;99891.22;;;5.68;73.06
83782;BME280;73783;49.924;15.466;2023-11-18T09:13:50;99911.53;;;5.83;72.52
83782;BME280;73783;49.924;15.466;2023-11-18T09:16:20;99913.22;;;5.87;72.03
83782;BME280;73783;49.924;15.466;2023-11-18T09:18:51;99900.41;;;5.89;71.87
83782;BME280;73783;49.924;15.466;2023-11-18T09:21:16;99899.56;;;5.88;72.63
83782;BME280;73783;49.924;15.466;2023-11-18T09:23:48;99902.78;;;6.02;71.98
83782;BME280;73783;49.924;15.466;2023-11-18T09:26:15;99904.38;;;6.16;71.65
83782;BME280;73783;49.924;15.466;2023-11-18T09:28:42;99903.59;;;6.06;71.36
83782;BME280;73783;49.924;15.466;2023-11-18T09:31:09;99901.88;;;6.08;72.04
83782;BME280;73783;49.924;15.466;2023-11-18T09:33:40;99925.72;;;6.15;71.61
83782;BME280;73783;49.924;15.466;2023-11-18T09:36:11;99901.00;;;6.11;70.97
83782;BME280;73783;49.924;15.466;2023-11-18T09:38:39;99930.72;;;6.24;72.04
83782;BME280;73783;49.924;15.466;2023-11-18T09:41:09;99927.13;;;6.37;72.07
83782;BME280;73783;49.924;15.466;2023-11-18T09:43:43;99919.44;;;6.40;70.98
83782;BME280;73783;49.924;15.466;2023-11-18T09:46:11;99921.88;;;6.47;70.81
83782;BME280;73783;49.924;15.466;2023-11-18T09:48:49;99919.38;;;6.41;69.88
83782;BME280;73783;49.924;15.466;2023-11-18T09:51:28;99925.44;;;6.36;70.44
83782;BME280;73783;49.924;15.466;2023-11-18T09:54:04;99927.13;;;6.40;70.47
83782;BME280;73783;49.924;15.466;2023-11-18T09:56:45;99928.72;;;6.45;69.47
83782;BME280;73783;49.924;15.466;2023-11-18T10:02:10;99929.78;;;6.31;70.86
83782;BME280;73783;49.924;15.466;2023-11-18T10:04:37;99940.06;;;6.28;70.16
83782;BME280;73783;49.924;15.466;2023-11-18T10:07:05;99933.31;;;6.21;70.95
83782;BME280;73783;49.924;15.466;2023-11-18T10:09:32;99936.03;;;6.10;71.26
83782;BME280;73783;49.924;15.466;2023-11-18T10:12:07;99940.19;;;6.17;70.92
83782;BME280;73783;49.924;15.466;2023-11-18T10:14:37;99950.44;;;6.19;71.65
83782;BME280;73783;49.924;15.466;2023-11-18T10:17:07;99950.56;;;6.09;72.01
83782;BME280;73783;49.924;15.466;2023-11-18T10:22:27;99942.00;;;6.11;71.64
83782;BME280;73783;49.924;15.466;2023-11-18T10:24:57;99930.00;;;6.13;72.08
83782;BME280;73783;49.924;15.466;2023-11-18T10:27:29;99933.25;;;6.27;71.23
83782;BME280;73783;49.924;15.466;2023-11-18T10:30:05;99943.38;;;6.36;71.32
83782;BME280;73783;49.924;15.466;2023-11-18T10:32:32;99932.25;;;6.40;70.87
83782;BME280;73783;49.924;15.466;2023-11-18T10:35:01;99930.34;;;6.54;69.45
83782;BME280;73783;49.924;15.466;2023-11-18T10:37:31;99941.41;;;6.58;69.90
83782;BME280;73783;49.924;15.466;2023-11-18T10:39:57;99931.16;;;6.56;69.19
83782;BME280;73783;49.924;15.466;2023-11-18T10:42:26;99940.41;;;6.69;69.35
83782;BME280;73783;49.924;15.466;2023-11-18T10:44:59;99948.91;;;6.71;69.49
83782;BME280;73783;49.924;15.466;2023-11-18T10:47:27;99942.81;;;6.78;69.05
83782;BME280;73783;49.924;15.466;2023-11-18T10:49:55;99919.69;;;6.80;68.70
83782;BME280;73783;49.924;15.466;2023-11-18T10:52:22;99935.06;;;6.83;67.16
83782;BME280;73783;49.924;15.466;2023-11-18T10:54:52;99938.41;;;6.86;68.34
83782;BME280;73783;49.924;15.466;2023-11-18T10:57:24;99949.53;;;6.85;68.71
83782;BME280;73783;49.924;15.466;2023-11-18T11:00:00;99932.44;;;6.84;67.83
83782;BME280;73783;49.924;15.466;2023-11-18T11:02:30;99936.81;;;6.79;67.56
83782;BME280;73783;49.924;15.466;2023-11-18T11:05:01;99937.06;;;6.61;69.06
83782;BME280;73783;49.924;15.466;2023-11-18T11:07:27;99940.44;;;6.65;68.47
83782;BME280;73783;49.924;15.466;2023-11-18T11:09:55;99935.31;;;6.65;68.87
83782;BME280;73783;49.924;15.466;2023-11-18T11:12:23;99930.31;;;6.56;69.06
83782;BME280;73783;49.924;15.466;2023-11-18T11:14:59;99930.94;;;6.71;68.80
83782;BME280;73783;49.924;15.466;2023-11-18T11:17:27;99920.66;;;6.74;68.46
83782;BME280;73783;49.924;15.466;2023-11-18T11:20:07;99933.41;;;6.79;67.92
83782;BME280;73783;49.924;15.466;2023-11-18T11:22:54;99927.47;;;6.75;68.64
83782;BME280;73783;49.924;15.466;2023-11-18T11:25:32;99929.16;;;6.78;67.62
83782;BME280;73783;49.924;15.466;2023-11-18T11:28:08;99917.19;;;6.75;67.75
83782;BME280;73783;49.924;15.466;2023-11-18T11:30:44;99930.78;;;6.83;68.38
83782;BME280;73783;49.924;15.466;2023-11-18T11:33:36;99923.81;;;6.91;68.52
83782;BME280;73783;49.924;15.466;2023-11-18T11:36:17;99925.44;;;6.99;67.82
83782;BME280;73783;49.924;15.466;2023-11-18T11:38:50;99923.63;;;7.04;68.30
83782;BME280;73783;49.924;15.466;2023-11-18T11:41:17;99920.31;;;6.97;67.52
83782;BME280;73783;49.924;15.466;2023-11-18T11:43:52;99923.50;;;7.13;67.11
83782;BME280;73783;49.924;15.466;2023-11-18T11:46:27;99926.22;;;7.04;67.03
83782;BME280;73783;49.924;15.466;2023-11-18T11:49:00;99929.66;;;7.01;67.13
83782;BME280;73783;49.924;15.466;2023-11-18T11:54:11;99939.97;;;6.98;67.20
83782;BME280;73783;49.924;15.466;2023-11-18T11:56:45;99932.31;;;6.95;67.51
83782;BME280;73783;49.924;15.466;2023-11-18T11:59:54;99938.41;;;6.86;67.89
83782;BME280;73783;49.924;15.466;2023-11-18T12:02:25;99938.38;;;6.89;67.40
83782;BME280;73783;49.924;15.466;2023-11-18T12:04:57;99925.59;;;6.85;68.01
83782;BME280;73783;49.924;15.466;2023-11-18T12:07:32;99930.81;;;6.80;67.38
83782;BME280;73783;49.924;15.466;2023-11-18T12:10:07;99946.06;;;6.89;67.47
83782;BME280;73783;49.924;15.466;2023-11-18T12:12:39;99940.06;;;6.92;66.85
83782;BME280;73783;49.924;15.466;2023-11-18T12:15:05;99931.59;;;6.85;67.96
83782;BME280;73783;49.924;15.466;2023-11-18T12:20:43;99946.09;;;6.88;67.25
83782;BME280;73783;49.924;15.466;2023-11-18T12:23:19;99947.97;;;6.75;67.72
83782;BME280;73783;49.924;15.466;2023-11-18T12:25:49;99956.50;;;6.79;67.81
83782;BME280;73783;49.924;15.466;2023-11-18T12:28:21;99929.28;;;6.69;67.40
83782;BME280;73783;49.924;15.466;2023-11-18T12:30:53;99942.91;;;6.72;68.71
83782;BME280;73783;49.924;15.466;2023-11-18T12:33:25;99937.72;;;6.77;68.09
83782;BME280;73783;49.924;15.466;2023-11-18T12:41:48;99941.78;;;6.90;68.51
83782;BME280;73783;49.924;15.466;2023-11-18T12:44:31;99940.94;;;6.89;67.17
83782;BME280;73783;49.924;15.466;2023-11-18T12:49:43;99929.84;;;6.89;67.28
83782;BME280;73783;49.924;15.466;2023-11-18T12:52:13;99906.94;;;6.77;67.65
83782;BME280;73783;49.924;15.466;2023-11-18T12:54:40;99917.19;;;6.78;68.28
83782;BME280;73783;49.924;15.466;2023-11-18T12:57:10;99913.69;;;6.82;68.31
83782;BME280;73783;49.924;15.466;2023-11-18T12:59:40;99922.97;;;6.91;68.70
83782;BME280;73783;49.924;15.466;2023-11-18T13:02:12;99923.81;;;6.90;67.71
83782;BME280;73783;49.924;15.466;2023-11-18T13:04:46;99918.69;;;6.91;67.86
83782;BME280;73783;49.924;15.466;2023-11-18T13:07:18;99906.78;;;6.86;68.78
83782;BME280;73783;49.924;15.466;2023-11-18T13:09:44;99913.53;;;6.93;67.80
83782;BME280;73783;49.924;15.466;2023-11-18T13:12:12;99907.66;;;6.85;67.16
83782;BME280;73783;49.924;15.466;2023-11-18T13:14:41;99908.41;;;6.93;67.76
83782;BME280;73783;49.924;15.466;2023-11-18T13:17:15;99910.97;;;6.91;68.54
83782;BME280;73783;49.924;15.466;2023-11-18T13:19:44;99899.97;;;6.85;67.52
83782;BME280;73783;49.924;15.466;2023-11-18T13:22:13;99893.19;;;6.79;68.21
83782;BME280;73783;49.924;15.466;2023-11-18T13:24:43;99923.13;;;6.80;68.08
83782;BME280;73783;49.924;15.466;2023-11-18T13:27:16;99914.69;;;6.74;69.79
83782;BME280;73783;49.924;15.466;2023-11-18T13:29:46;99911.22;;;6.75;69.20
83782;BME280;73783;49.924;15.466;2023-11-18T13:32:16;99906.13;;;6.73;69.20
83782;BME280;73783;49.924;15.466;2023-11-18T13:34:42;99898.59;;;6.64;69.55